Time;durP1;ratioP1;P1;durP2;ratioP2;P2;SDS_P1;SDS_P2;PMS_P1;PMS_P2;Temp;Humidity;BMP_temperature;BMP_pressure;BME280_temperature;BME280_humidity;BME280_pressure;Samples;Min_cycle;Max_cycle;Signal;HPM_P1;HPM_P2
2024/02/21 00:00:35;;;;;;;10.13;6.90;;;;;;;10.08;59.34;99504.16;5056060;28;20021;-73
2024/02/21 00:03:02;;;;;;;11.00;7.15;;;;;;;10.09;59.12;99502.41;5056100;28;20079;-73
2024/02/21 00:05:27;;;;;;;11.25;7.32;;;;;;;10.11;58.96;99510.97;5035973;28;20039;-74
2024/02/21 00:07:53;;;;;;;12.30;7.32;;;;;;;10.11;58.96;99513.56;5036447;28;20435;-72
2024/02/21 00:10:18;;;;;;;13.48;7.70;;;;;;;10.10;58.95;99509.28;5036521;28;20045;-73
2024/02/21 00:12:44;;;;;;;12.20;7.63;;;;;;;10.09;58.88;99511.06;5036078;28;20048;-73
2024/02/21 00:15:09;;;;;;;11.40;7.18;;;;;;;10.06;58.98;99505.19;5035887;28;20122;-74
2024/02/21 00:17:35;;;;;;;12.18;7.43;;;;;;;10.09;58.98;99512.84;5019378;28;20032;-73
2024/02/21 00:20:00;;;;;;;9.90;6.72;;;;;;;10.04;58.97;99501.81;5019405;28;20037;-74
2024/02/21 00:22:28;;;;;;;10.18;6.93;;;;;;;10.06;58.84;99506.03;5036161;28;20033;-74
2024/02/21 00:24:54;;;;;;;13.40;7.90;;;;;;;10.05;59.07;99506.13;5035811;28;20132;-74
2024/02/21 00:27:19;;;;;;;12.38;7.75;;;;;;;10.05;58.87;99512.16;5052622;28;20033;-73
2024/02/21 00:29:45;;;;;;;10.55;7.40;;;;;;;10.06;58.97;99513.03;5052405;28;20386;-73
2024/02/21 00:32:11;;;;;;;13.15;7.80;;;;;;;10.05;59.02;99503.50;5035658;28;20021;-74
2024/02/21 00:34:36;;;;;;;12.20;7.10;;;;;;;10.00;58.86;99503.78;5035488;28;20029;-73
2024/02/21 00:37:02;;;;;;;10.95;7.00;;;;;;;10.03;59.11;99505.38;5051930;28;20052;-71
2024/02/21 00:39:27;;;;;;;13.05;7.82;;;;;;;10.04;58.82;99512.25;5035536;28;20134;-73
2024/02/21 00:41:53;;;;;;;11.38;6.80;;;;;;;9.99;58.97;99503.88;5052985;28;20052;-73
2024/02/21 00:44:18;;;;;;;12.23;7.65;;;;;;;10.01;59.18;99509.84;5035212;28;20388;-72
2024/02/21 00:46:44;;;;;;;10.55;7.10;;;;;;;9.96;58.91;99490.13;5051891;28;20032;-72
2024/02/21 00:49:09;;;;;;;10.93;7.35;;;;;;;10.00;58.92;99502.97;5018866;28;20044;-72
2024/02/21 00:51:35;;;;;;;11.15;7.65;;;;;;;9.95;59.07;99492.81;5018456;28;20557;-73
2024/02/21 00:54:01;;;;;;;10.90;7.28;;;;;;;9.99;58.89;99501.28;5035540;28;20147;-74
2024/02/21 00:56:26;;;;;;;10.88;6.82;;;;;;;10.00;58.85;99493.34;5035511;28;20031;-73
2024/02/21 00:58:52;;;;;;;12.20;7.63;;;;;;;10.00;59.01;99487.31;5035069;28;20045;-73
2024/02/21 01:01:24;;;;;;;14.20;7.40;;;;;;;9.94;59.02;99481.53;5034984;28;20029;-73
2024/02/21 01:03:49;;;;;;;11.55;7.50;;;;;;;9.94;58.71;99478.91;5035682;28;20031;-74
2024/02/21 01:06:15;;;;;;;12.00;7.45;;;;;;;9.93;58.72;99481.63;5051437;28;20029;-73
2024/02/21 01:08:40;;;;;;;12.63;7.50;;;;;;;9.94;58.84;99483.31;5034220;28;20033;-73
2024/02/21 01:11:06;;;;;;;12.45;7.65;;;;;;;9.98;58.84;99489.16;5018575;28;20043;-72
2024/02/21 01:13:31;;;;;;;10.98;7.38;;;;;;;9.93;58.72;99492.06;5051420;28;20040;-72
2024/02/21 01:15:57;;;;;;;15.15;8.15;;;;;;;9.92;58.70;99498.22;5034901;28;20029;-72
2024/02/21 01:18:22;;;;;;;10.88;7.32;;;;;;;9.97;58.85;99498.78;5034822;28;20037;-74
2024/02/21 01:20:48;;;;;;;13.65;7.03;;;;;;;9.96;58.74;99497.94;5034963;28;20020;-74
2024/02/21 01:23:13;;;;;;;11.63;7.15;;;;;;;9.91;58.68;99483.50;5034751;28;20044;-72
2024/02/21 01:25:39;;;;;;;11.98;6.93;;;;;;;9.94;58.93;99488.53;5034933;28;20032;-72
2024/02/21 01:28:05;;;;;;;10.55;7.07;;;;;;;9.94;58.72;99488.53;5051414;28;20037;-73
2024/02/21 01:30:30;;;;;;;12.32;7.80;;;;;;;9.95;58.82;99495.44;5034774;28;20476;-74
2024/02/21 01:32:55;;;;;;;11.55;7.43;;;;;;;9.90;58.62;99484.44;5051114;28;20147;-72
2024/02/21 01:35:21;;;;;;;10.98;7.25;;;;;;;9.94;58.66;99491.97;5018684;28;20044;-73
2024/02/21 01:37:46;;;;;;;12.32;7.82;;;;;;;9.92;58.81;99486.00;5052291;28;20415;-73
2024/02/21 01:40:12;;;;;;;11.10;6.97;;;;;;;9.87;58.90;99479.41;5034256;28;20062;-74
2024/02/21 01:42:39;;;;;;;9.95;6.50;;;;;;;9.92;58.88;99487.78;5050752;28;20484;-73
2024/02/21 01:45:05;;;;;;;12.48;7.93;;;;;;;9.90;58.82;99485.28;5034373;28;20048;-73
2024/02/21 01:47:31;;;;;;;10.48;7.28;;;;;;;9.86;58.74;99470.72;5050968;28;20410;-73
2024/02/21 01:49:56;;;;;;;13.07;7.57;;;;;;;9.92;58.63;99482.56;5034468;28;20047;-74
2024/02/21 01:52:22;;;;;;;11.63;7.43;;;;;;;9.91;58.51;99479.09;5034524;28;20044;-74
2024/02/21 01:54:47;;;;;;;11.27;7.32;;;;;;;9.90;58.49;99468.78;5050818;28;20116;-74
2024/02/21 01:57:13;;;;;;;11.38;7.55;;;;;;;9.89;58.64;99469.72;5034154;28;20108;-74
2024/02/21 01:59:38;;;;;;;13.15;7.70;;;;;;;9.90;58.58;99468.78;5017647;28;20040;-72
2024/02/21 02:02:04;;;;;;;13.02;7.75;;;;;;;9.88;58.70;99471.50;5034040;28;20120;-74
2024/02/21 02:04:29;;;;;;;12.02;7.63;;;;;;;9.84;58.61;99466.56;5034345;28;20041;-74
2024/02/21 02:06:55;;;;;;;12.43;7.68;;;;;;;9.87;58.49;99471.59;5017251;28;20106;-72
2024/02/21 02:09:20;;;;;;;11.85;7.10;;;;;;;9.85;58.77;99482.13;5033670;28;20036;-74
2024/02/21 02:11:46;;;;;;;11.40;7.95;;;;;;;9.84;58.68;99479.59;5051219;28;20057;-74
2024/02/21 02:14:11;;;;;;;11.80;7.22;;;;;;;9.84;58.76;99474.38;5017178;28;20385;-72
2024/02/21 02:16:37;;;;;;;13.00;7.57;;;;;;;9.81;58.80;99470.19;5049939;28;20114;-73
2024/02/21 02:19:03;;;;;;;11.95;6.90;;;;;;;9.81;58.81;99466.75;5050269;28;20140;-72
2024/02/21 02:21:37;;;;;;;11.90;7.25;;;;;;;9.82;58.65;99471.88;5050204;28;20060;-73
2024/02/21 02:24:04;;;;;;;12.25;8.02;;;;;;;9.79;58.81;99474.66;5017685;28;20044;-73
2024/02/21 02:26:30;;;;;;;10.88;6.93;;;;;;;9.79;58.46;99464.25;5017656;28;20025;-73
2024/02/21 02:28:55;;;;;;;13.73;7.70;;;;;;;9.79;58.64;99479.88;5033642;28;20396;-73
2024/02/21 02:31:21;;;;;;;11.82;7.40;;;;;;;9.73;58.85;99465.44;5017074;28;20024;-73
2024/02/21 02:33:47;;;;;;;11.00;7.20;;;;;;;9.77;58.77;99476.50;5017082;28;20396;-72
2024/02/21 02:36:13;;;;;;;13.50;8.00;;;;;;;9.76;58.64;99472.25;5050435;28;20453;-72
2024/02/21 02:38:38;;;;;;;11.55;7.50;;;;;;;9.76;58.45;99474.84;5033579;28;20041;-74
2024/02/21 02:41:04;;;;;;;11.10;7.25;;;;;;;9.71;58.62;99469.91;5033816;28;20052;-71
2024/02/21 02:43:29;;;;;;;13.02;7.47;;;;;;;9.71;58.65;99482.09;5033833;28;20037;-71
2024/02/21 02:45:55;;;;;;;11.80;7.53;;;;;;;9.70;58.66;99481.25;5017145;28;20353;-72
2024/02/21 02:48:21;;;;;;;11.70;7.55;;;;;;;9.74;58.60;99482.78;5049947;28;20064;-71
2024/02/21 02:50:46;;;;;;;11.30;7.28;;;;;;;9.72;58.55;99482.00;5050478;28;20075;-73
2024/02/21 02:53:12;;;;;;;12.98;7.93;;;;;;;9.75;58.57;99484.41;5033240;28;20451;-72
2024/02/21 02:55:37;;;;;;;11.57;7.35;;;;;;;9.75;58.60;99483.59;5033266;28;20045;-74
2024/02/21 02:58:03;;;;;;;12.35;7.88;;;;;;;9.74;58.49;99477.56;5049724;28;20044;-74
2024/02/21 03:00:28;;;;;;;13.23;8.02;;;;;;;9.75;58.55;99478.38;5033280;28;20025;-72
2024/02/21 03:02:54;;;;;;;11.50;7.53;;;;;;;9.70;58.61;99470.84;5033044;28;20041;-73
2024/02/21 03:05:20;;;;;;;12.27;7.95;;;;;;;9.72;58.39;99468.13;5016746;28;20033;-74
2024/02/21 03:07:46;;;;;;;12.63;7.97;;;;;;;9.71;58.61;99480.34;5033257;28;20017;-73
2024/02/21 03:10:11;;;;;;;13.55;8.27;;;;;;;9.76;58.50;99490.50;5017058;28;20032;-72
2024/02/21 03:12:37;;;;;;;12.57;8.35;;;;;;;9.71;58.78;99482.94;5049812;28;20488;-72
2024/02/21 03:15:04;;;;;;;12.98;8.68;;;;;;;9.71;58.31;99484.69;5033538;28;20036;-72
2024/02/21 03:17:30;;;;;;;13.18;8.30;;;;;;;9.75;58.38;99489.63;5033414;28;20016;-73
2024/02/21 03:19:55;;;;;;;14.18;8.43;;;;;;;9.74;58.30;99489.72;5049637;28;20052;-73
2024/02/21 03:22:21;;;;;;;13.63;8.77;;;;;;;9.74;58.38;99485.38;5049783;28;20029;-74
2024/02/21 03:24:47;;;;;;;12.27;8.20;;;;;;;9.74;58.54;99481.91;5032994;28;20135;-72
2024/02/21 03:27:12;;;;;;;13.70;8.35;;;;;;;9.74;58.46;99487.13;5049707;28;20468;-73
2024/02/21 03:29:38;;;;;;;13.65;8.55;;;;;;;9.74;58.42;99481.91;5033107;28;20444;-74
2024/02/21 03:32:03;;;;;;;12.45;8.45;;;;;;;9.74;58.49;99484.50;5034845;28;20029;-73
2024/02/21 03:34:29;;;;;;;14.23;8.93;;;;;;;9.69;58.30;99476.16;5036569;28;20487;-73
2024/02/21 03:37:02;;;;;;;13.07;8.32;;;;;;;9.67;58.25;99473.63;5053226;28;20118;-73
2024/02/21 03:39:31;;;;;;;14.15;8.40;;;;;;;9.70;58.40;99481.25;5053989;28;20051;-72
2024/02/21 03:41:57;;;;;;;14.68;9.15;;;;;;;9.68;58.39;99477.94;5036776;28;20028;-72
2024/02/21 03:44:23;;;;;;;12.50;8.10;;;;;;;9.67;58.43;99478.84;5019828;28;20053;-72
2024/02/21 03:46:48;;;;;;;13.75;8.45;;;;;;;9.68;58.32;99477.09;5053290;28;20025;-73
2024/02/21 03:49:14;;;;;;;13.93;8.43;;;;;;;9.62;58.53;99467.03;5019697;28;20045;-73
2024/02/21 03:51:39;;;;;;;12.32;8.27;;;;;;;9.66;58.73;99476.31;5053073;28;20040;-73
2024/02/21 03:54:06;;;;;;;14.20;8.43;;;;;;;9.64;58.54;99470.38;5019951;28;20045;-73
2024/02/21 03:56:31;;;;;;;13.10;8.20;;;;;;;9.58;58.52;99456.78;5054205;28;20040;-73
2024/02/21 03:58:58;;;;;;;14.65;9.23;;;;;;;9.60;58.41;99465.34;5036598;28;20521;-73
2024/02/21 04:01:23;;;;;;;12.60;8.23;;;;;;;9.57;58.53;99464.72;5036366;28;20017;-74
2024/02/21 04:03:49;;;;;;;13.55;8.55;;;;;;;9.60;58.53;99472.34;5035895;28;20059;-73
2024/02/21 04:06:14;;;;;;;13.20;8.48;;;;;;;9.58;58.70;99477.66;5052680;28;20496;-72
2024/02/21 04:08:40;;;;;;;14.05;9.15;;;;;;;9.56;58.72;99465.63;5036631;28;20059;-74
2024/02/21 04:11:05;;;;;;;11.25;8.43;;;;;;;9.57;58.53;99475.97;5036452;28;20393;-74
2024/02/21 04:13:30;;;;;;;14.00;8.73;;;;;;;9.52;58.61;99466.72;5035824;28;20041;-73
2024/02/21 04:15:56;;;;;;;12.85;8.27;;;;;;;9.50;58.50;99476.41;5052825;28;20033;-72
2024/02/21 04:18:22;;;;;;;12.93;8.23;;;;;;;9.54;58.69;99470.09;5036604;28;20041;-72
2024/02/21 04:20:47;;;;;;;12.55;8.55;;;;;;;9.49;58.75;99472.13;5052343;28;20029;-73
2024/02/21 04:23:13;;;;;;;12.68;8.40;;;;;;;9.52;58.53;99477.16;5019329;28;20464;-73
2024/02/21 04:25:38;;;;;;;13.95;8.57;;;;;;;9.51;58.66;99470.28;5035860;28;20032;-73
2024/02/21 04:28:04;;;;;;;14.02;8.98;;;;;;;9.51;58.71;99486.75;5019018;28;20044;-73
2024/02/21 04:30:30;;;;;;;13.20;8.45;;;;;;;9.50;58.71;99484.25;5051498;28;20049;-74
2024/02/21 04:32:55;;;;;;;13.65;8.38;;;;;;;9.50;58.60;99486.84;5035314;28;20037;-75
2024/02/21 04:35:21;;;;;;;13.18;8.57;;;;;;;9.42;58.78;99476.88;5035931;28;20449;-76
2024/02/21 04:37:46;;;;;;;11.77;8.13;;;;;;;9.52;63.40;99483.22;5054020;28;20025;-73
2024/02/21 04:40:12;;;;;;;21.17;7.57;;;;;;;9.60;62.61;99485.38;5052104;28;20033;-76
2024/02/21 04:42:38;;;;;;;14.32;6.63;;;;;;;9.86;71.07;99481.16;5051278;28;20037;-78
2024/02/21 04:45:04;;;;;;;18.45;5.90;;;;;;;10.34;74.28;99485.22;5019068;28;20131;-76
2024/02/21 04:47:30;;;;;;;11.45;6.03;;;;;;;10.32;71.31;99488.75;5052219;28;20170;-74
2024/02/21 04:49:55;;;;;;;18.65;6.97;;;;;;;10.30;72.08;99482.78;5051960;28;20497;-75
2024/02/21 04:52:21;;;;;;;19.25;6.38;;;;;;;10.35;71.87;99485.13;5035748;28;20056;-77
2024/02/21 04:54:47;;;;;;;11.45;6.18;;;;;;;10.49;72.54;99499.91;5035391;28;20036;-76
2024/02/21 04:57:16;;;;;;;15.75;6.40;;;;;;;10.41;70.19;99482.13;5051947;28;20032;-74
2024/02/21 04:59:45;;;;;;;21.15;7.05;;;;;;;10.45;71.04;99486.22;5037658;28;20032;-75
2024/02/21 05:02:11;;;;;;;11.65;6.80;;;;;;;10.42;70.56;99490.78;5051975;28;20106;-75
2024/02/21 05:04:38;;;;;;;11.25;6.90;;;;;;;10.28;70.08;99483.81;5052960;28;20476;-74
2024/02/21 05:07:04;;;;;;;13.70;7.15;;;;;;;10.17;70.03;99487.09;5035494;28;20111;-74
2024/02/21 05:09:29;;;;;;;26.13;7.82;;;;;;;10.09;69.76;99491.97;5051849;28;20419;-79
2024/02/21 05:11:55;;;;;;;13.93;7.03;;;;;;;10.05;69.52;99503.50;5051727;28;20041;-72
2024/02/21 05:14:20;;;;;;;12.85;7.28;;;;;;;9.95;69.39;99504.06;5052656;28;20064;-69
2024/02/21 05:16:46;;;;;;;10.68;7.65;;;;;;;9.89;69.29;99509.66;5034566;28;20625;-68
2024/02/21 05:19:11;;;;;;;12.18;7.22;;;;;;;9.82;69.41;99515.34;5033519;28;20099;-68
2024/02/21 05:21:38;;;;;;;23.08;7.95;;;;;;;9.83;71.71;99512.66;5018540;28;20106;-70
2024/02/21 05:24:03;;;;;;;13.80;8.30;;;;;;;10.00;72.53;99523.84;5034980;28;20033;-68
2024/02/21 05:26:29;;;;;;;13.50;7.65;;;;;;;10.02;71.46;99528.00;5051324;28;20094;-68
2024/02/21 05:28:54;;;;;;;13.38;7.28;;;;;;;10.00;70.60;99519.44;5051368;28;20028;-68
2024/02/21 05:31:20;;;;;;;19.95;7.90;;;;;;;9.93;70.45;99510.31;5051214;28;20052;-69
2024/02/21 05:33:46;;;;;;;13.82;6.95;;;;;;;9.92;70.12;99517.31;5035075;28;20495;-70
2024/02/21 05:36:12;;;;;;;13.00;7.80;;;;;;;9.89;69.98;99521.88;5034335;28;20086;-69
2024/02/21 05:38:38;;;;;;;12.13;7.30;;;;;;;9.88;69.88;99520.19;5034644;28;20047;-71
2024/02/21 05:41:03;;;;;;;14.95;7.65;;;;;;;9.89;69.58;99527.09;5034203;28;20021;-71
2024/02/21 05:43:29;;;;;;;11.70;7.68;;;;;;;9.85;69.52;99522.97;5034582;28;20115;-69
2024/02/21 05:45:54;;;;;;;12.60;7.65;;;;;;;9.89;69.17;99529.69;5050784;28;20053;-70
2024/02/21 05:48:20;;;;;;;14.45;7.78;;;;;;;9.89;69.07;99527.91;5050991;28;20029;-69
2024/02/21 05:50:45;;;;;;;11.88;7.38;;;;;;;9.89;68.77;99529.69;5051284;28;20464;-69
2024/02/21 05:53:12;;;;;;;11.32;7.40;;;;;;;9.91;68.71;99539.09;5051037;28;20083;-70
2024/02/21 05:55:38;;;;;;;12.10;7.40;;;;;;;9.92;68.59;99539.94;5050723;28;20178;-68
2024/02/21 05:58:03;;;;;;;15.82;7.63;;;;;;;9.95;68.47;99534.53;5051149;28;20067;-70
2024/02/21 06:00:29;;;;;;;14.82;7.85;;;;;;;9.98;68.33;99538.72;5051095;28;20127;-68
2024/02/21 06:02:55;;;;;;;13.23;7.68;;;;;;;9.98;68.09;99544.78;5052070;28;20029;-68
2024/02/21 06:05:20;;;;;;;14.00;7.90;;;;;;;9.99;68.18;99535.19;5034923;28;20032;-68
2024/02/21 06:07:46;;;;;;;14.05;8.25;;;;;;;10.05;67.72;99542.66;5033107;28;20182;-68
2024/02/21 06:10:11;;;;;;;12.80;7.80;;;;;;;10.10;67.75;99543.19;5050882;28;20083;-70
2024/02/21 06:12:37;;;;;;;13.73;7.38;;;;;;;10.17;67.38;99548.88;5049554;28;20468;-68
2024/02/21 06:15:02;;;;;;;13.05;8.10;;;;;;;10.24;67.27;99547.56;5049605;28;20056;-68
2024/02/21 06:17:28;;;;;;;17.75;8.45;;;;;;;10.34;66.89;99560.91;5032894;28;20048;-69
2024/02/21 06:19:53;;;;;;;13.18;7.80;;;;;;;10.44;66.46;99556.81;5050789;28;20032;-68
2024/02/21 06:22:19;;;;;;;14.70;8.95;;;;;;;10.54;66.32;99559.66;5049993;28;20029;-70
2024/02/21 06:24:45;;;;;;;14.48;9.15;;;;;;;10.65;65.62;99559.81;5034164;28;20541;-69
2024/02/21 06:27:11;;;;;;;15.07;8.48;;;;;;;10.77;65.47;99553.81;5033709;28;20507;-69
2024/02/21 06:29:36;;;;;;;18.45;9.15;;;;;;;10.95;65.05;99562.25;5033956;28;20025;-70
2024/02/21 06:32:02;;;;;;;14.23;9.40;;;;;;;11.10;64.41;99557.81;5050483;28;20104;-68
2024/02/21 06:34:28;;;;;;;15.63;9.02;;;;;;;11.30;63.76;99555.66;5034144;28;20488;-69
2024/02/21 06:36:53;;;;;;;15.35;9.50;;;;;;;11.67;62.73;99564.50;5050244;28;20029;-70
2024/02/21 06:39:19;;;;;;;18.95;10.02;;;;;;;12.16;62.27;99559.47;5050262;28;20464;-69
2024/02/21 06:41:44;;;;;;;16.52;10.32;;;;;;;13.12;61.08;99570.03;5033960;28;20036;-69
2024/02/21 06:44:10;;;;;;;21.05;12.68;;;;;;;13.99;60.19;99566.22;5016995;28;20037;-68
2024/02/21 06:46:35;;;;;;;23.30;14.10;;;;;;;14.77;59.12;99561.88;5051554;28;20024;-69
2024/02/21 06:49:03;;;;;;;22.58;14.60;;;;;;;15.51;57.35;99559.31;5033773;28;20405;-70
2024/02/21 06:51:28;;;;;;;23.00;14.38;;;;;;;16.26;55.56;99545.97;5050061;28;20037;-69
2024/02/21 06:53:54;;;;;;;22.60;15.57;;;;;;;17.13;53.96;99563.75;5033754;28;20037;-68
2024/02/21 06:56:20;;;;;;;24.85;15.18;;;;;;;17.90;51.42;99562.00;5051401;28;20028;-69
2024/02/21 06:58:45;;;;;;;21.15;14.13;;;;;;;18.80;49.13;99551.66;5050035;28;20033;-69
2024/02/21 07:01:11;;;;;;;20.02;13.73;;;;;;;19.72;46.72;99556.75;5033362;28;20191;-68
2024/02/21 07:03:36;;;;;;;19.98;14.00;;;;;;;20.66;44.31;99544.44;5050242;28;20068;-69
2024/02/21 07:06:02;;;;;;;19.85;13.23;;;;;;;21.72;42.20;99541.97;5033950;28;20041;-69
2024/02/21 07:08:27;;;;;;;16.50;13.15;;;;;;;22.67;40.23;99535.78;5036720;28;20051;-69
2024/02/21 07:10:53;;;;;;;18.02;13.02;;;;;;;23.66;38.13;99539.31;5037185;28;20025;-68
2024/02/21 07:13:18;;;;;;;18.17;12.65;;;;;;;24.65;36.29;99537.34;5055229;28;20400;-68
2024/02/21 07:15:44;;;;;;;15.80;12.43;;;;;;;25.57;34.45;99539.22;5055128;28;20144;-69
2024/02/21 07:18:09;;;;;;;17.40;11.77;;;;;;;26.51;33.02;99532.50;5055109;28;20084;-68
2024/02/21 07:20:37;;;;;;;14.10;10.88;;;;;;;27.49;31.67;99533.06;5037067;28;20518;-68
2024/02/21 07:23:03;;;;;;;14.75;11.50;;;;;;;28.40;30.06;99534.06;5054800;28;20091;-69
2024/02/21 07:25:28;;;;;;;13.88;11.27;;;;;;;29.14;29.00;99524.50;5053676;28;20033;-69
2024/02/21 07:27:54;;;;;;;13.73;10.30;;;;;;;29.90;27.66;99535.22;5054036;28;20040;-70
2024/02/21 07:30:19;;;;;;;13.82;11.02;;;;;;;30.60;26.86;99536.63;5055155;28;20033;-69
2024/02/21 07:32:45;;;;;;;11.27;9.73;;;;;;;31.12;25.73;99536.94;5037128;28;20396;-68
2024/02/21 07:35:11;;;;;;;13.65;9.68;;;;;;;31.46;25.50;99539.88;5036967;28;20025;-68
2024/02/21 07:37:37;;;;;;;13.02;9.48;;;;;;;31.62;25.35;99532.16;5053234;28;20373;-69
2024/02/21 07:40:07;;;;;;;12.13;9.82;;;;;;;31.42;25.33;99541.38;5054880;28;20037;-67
2024/02/21 07:42:32;;;;;;;14.40;9.90;;;;;;;30.93;26.05;99543.41;5036578;28;20039;-67
2024/02/21 07:44:58;;;;;;;16.10;10.52;;;;;;;30.49;26.46;99546.34;5054594;28;20053;-69
2024/02/21 07:47:24;;;;;;;14.77;11.05;;;;;;;30.01;27.44;99541.72;5053147;28;20041;-69
2024/02/21 07:49:49;;;;;;;20.48;11.50;;;;;;;29.59;27.53;99542.34;5052972;28;20048;-70
2024/02/21 07:52:15;;;;;;;19.33;11.68;;;;;;;29.37;28.08;99539.25;5053218;28;20400;-69
2024/02/21 07:54:41;;;;;;;17.38;11.65;;;;;;;29.29;28.29;99545.72;5036636;28;20398;-70
2024/02/21 07:57:07;;;;;;;15.45;11.30;;;;;;;29.19;28.28;99537.31;5036298;28;20055;-68
2024/02/21 07:59:32;;;;;;;14.35;11.02;;;;;;;29.15;28.44;99542.28;5053053;28;20056;-70
2024/02/21 08:01:58;;;;;;;17.95;10.80;;;;;;;28.80;28.71;99540.06;5054006;28;20066;-70
2024/02/21 08:04:24;;;;;;;17.27;11.23;;;;;;;28.18;29.08;99544.25;5054053;28;20447;-68
2024/02/21 08:06:56;;;;;;;16.98;11.13;;;;;;;27.73;29.54;99537.75;5054124;28;20086;-69
2024/02/21 08:09:22;;;;;;;16.67;11.77;;;;;;;27.38;30.11;99531.84;5036733;28;20048;-69
2024/02/21 08:11:48;;;;;;;19.42;11.90;;;;;;;26.49;31.60;99537.25;5036399;28;20056;-68
2024/02/21 08:14:16;;;;;;;19.25;11.55;;;;;;;25.85;32.00;99542.88;5053954;28;20381;-69
2024/02/21 08:16:42;;;;;;;22.07;12.40;;;;;;;26.36;31.45;99547.88;5052520;28;20044;-70
2024/02/21 08:19:07;;;;;;;18.10;11.18;;;;;;;26.58;31.59;99537.06;5053123;28;20293;-70
2024/02/21 08:21:33;;;;;;;16.15;10.57;;;;;;;26.61;31.26;99531.28;5053124;28;20480;-69
2024/02/21 08:23:58;;;;;;;17.15;11.60;;;;;;;27.00;31.48;99538.59;5053837;28;20029;-70
2024/02/21 08:26:27;;;;;;;16.30;10.25;;;;;;;27.10;31.19;99543.56;5019486;28;20408;-72
2024/02/21 08:28:53;;;;;;;14.43;10.35;;;;;;;27.34;30.91;99534.13;5049401;28;20179;-69
2024/02/21 08:31:23;;;;;;;15.93;10.27;;;;;;;27.66;30.53;99536.13;5032962;28;20520;-69
2024/02/21 08:33:48;;;;;;;15.63;9.50;;;;;;;27.30;30.86;99529.34;5032823;28;20064;-70
2024/02/21 08:36:19;;;;;;;16.95;10.27;;;;;;;27.84;30.29;99541.66;5032783;28;20056;-69
2024/02/21 08:38:44;;;;;;;14.82;9.57;;;;;;;27.68;30.28;99542.13;5016591;28;20033;-72
2024/02/21 08:41:10;;;;;;;16.08;10.25;;;;;;;27.74;30.46;99542.09;5032985;28;20049;-69
2024/02/21 08:43:35;;;;;;;14.07;9.52;;;;;;;27.77;30.69;99540.88;5032379;28;20577;-69
2024/02/21 08:46:01;;;;;;;11.30;9.02;;;;;;;28.13;29.85;99540.38;5015872;28;20053;-69
2024/02/21 08:48:26;;;;;;;14.40;9.00;;;;;;;28.32;29.66;99535.97;5032291;28;20467;-69
2024/02/21 08:50:54;;;;;;;14.13;9.30;;;;;;;28.51;29.75;99536.06;5032301;28;20029;-69
2024/02/21 08:53:19;;;;;;;11.88;8.90;;;;;;;28.63;29.66;99537.06;5032352;28;20037;-68
2024/02/21 08:55:45;;;;;;;15.27;9.30;;;;;;;28.72;29.48;99540.31;5031919;28;20578;-69
2024/02/21 08:58:11;;;;;;;13.43;9.45;;;;;;;28.87;29.54;99531.94;5033485;28;20029;-69
2024/02/21 09:00:36;;;;;;;11.55;8.52;;;;;;;29.01;28.94;99533.50;5015373;28;20405;-68
2024/02/21 09:03:02;;;;;;;11.32;8.77;;;;;;;29.14;28.92;99535.25;5031861;28;20068;-69
2024/02/21 09:05:28;;;;;;;12.43;8.70;;;;;;;29.28;28.58;99532.50;5048656;28;20037;-69
2024/02/21 09:07:54;;;;;;;10.40;8.50;;;;;;;29.32;28.26;99525.63;5048643;28;20079;-69
2024/02/21 09:10:19;;;;;;;11.52;8.23;;;;;;;29.57;27.74;99531.81;5033201;28;20056;-69
2024/02/21 09:12:45;;;;;;;11.00;8.02;;;;;;;29.71;27.59;99527.09;5032144;28;20032;-67
2024/02/21 09:15:10;;;;;;;10.43;7.97;;;;;;;29.84;27.48;99525.34;5031912;28;20347;-69
2024/02/21 09:17:36;;;;;;;11.25;8.70;;;;;;;30.04;27.05;99530.50;5032966;28;20033;-69
2024/02/21 09:20:03;;;;;;;12.50;8.45;;;;;;;30.26;26.74;99528.16;5015029;28;20461;-67
2024/02/21 09:22:29;;;;;;;10.25;7.90;;;;;;;30.49;26.70;99530.19;5015530;28;20038;-69
2024/02/21 09:24:55;;;;;;;11.48;7.38;;;;;;;30.62;26.64;99523.78;5014953;28;20037;-68
2024/02/21 09:27:20;;;;;;;12.23;8.00;;;;;;;30.63;26.53;99523.56;5031770;28;20028;-70
2024/02/21 09:29:46;;;;;;;10.60;8.27;;;;;;;30.53;26.54;99515.19;5030534;28;20140;-68
2024/02/21 09:32:12;;;;;;;10.52;8.20;;;;;;;30.57;26.14;99531.72;5031438;28;20504;-69
2024/02/21 09:34:37;;;;;;;10.50;7.95;;;;;;;30.81;26.28;99527.22;5047987;28;20121;-70
2024/02/21 09:37:03;;;;;;;9.90;7.70;;;;;;;30.77;26.29;99516.06;5047610;28;20476;-68
2024/02/21 09:39:30;;;;;;;10.77;7.50;;;;;;;30.93;25.79;99522.69;5031261;28;20490;-68
2024/02/21 09:41:59;;;;;;;11.13;7.70;;;;;;;30.96;25.79;99513.31;5031262;28;20024;-70
2024/02/21 09:44:25;;;;;;;9.82;7.43;;;;;;;30.40;26.05;99515.38;5046979;28;20106;-67
2024/02/21 09:47:03;;;;;;;9.40;7.85;;;;;;;30.61;26.14;99509.47;5031148;28;20041;-69
2024/02/21 09:49:33;;;;;;;8.70;7.00;;;;;;;30.64;25.90;99495.53;5032252;28;20033;-71
2024/02/21 09:52:00;;;;;;;9.68;7.05;;;;;;;30.69;26.30;99507.50;5032201;28;20033;-70
2024/02/21 09:54:28;;;;;;;10.88;7.18;;;;;;;30.58;26.16;99491.06;5031253;28;20045;-70
2024/02/21 09:56:53;;;;;;;8.77;6.95;;;;;;;30.56;26.34;99503.16;5031153;28;20036;-68
2024/02/21 09:59:19;;;;;;;11.50;7.28;;;;;;;30.51;26.24;99503.84;5030744;28;20037;-69
2024/02/21 10:01:46;;;;;;;7.47;6.68;;;;;;;30.53;26.32;99490.13;5030917;28;20022;-70
2024/02/21 10:04:11;;;;;;;9.52;7.13;;;;;;;30.55;26.11;99496.91;5031080;28;20112;-70
2024/02/21 10:06:37;;;;;;;8.25;6.45;;;;;;;30.58;26.03;99493.75;5047450;28;20489;-69
2024/02/21 10:09:03;;;;;;;8.50;6.63;;;;;;;30.61;25.88;99495.19;5030847;28;20037;-69
2024/02/21 10:11:29;;;;;;;8.00;6.32;;;;;;;30.03;26.18;99496.56;5030108;28;20523;-68
2024/02/21 10:14:07;;;;;;;8.15;6.43;;;;;;;29.09;27.16;99493.97;5030584;28;20045;-69
2024/02/21 10:16:33;;;;;;;9.63;6.47;;;;;;;28.44;27.82;99493.13;5030963;28;20041;-69
2024/02/21 10:18:58;;;;;;;8.48;6.68;;;;;;;27.78;28.66;99483.47;5047575;28;20128;-69
2024/02/21 10:21:24;;;;;;;10.40;7.05;;;;;;;27.12;28.99;99489.75;5030763;28;20190;-69
2024/02/21 10:23:50;;;;;;;9.52;7.00;;;;;;;26.32;30.00;99477.88;5014197;28;20044;-70
2024/02/21 10:26:16;;;;;;;10.30;7.60;;;;;;;25.71;30.49;99477.81;5030525;28;20057;-68
2024/02/21 10:28:44;;;;;;;9.55;6.70;;;;;;;25.10;31.48;99477.38;5030579;28;20063;-69
2024/02/21 10:31:10;;;;;;;9.50;6.60;;;;;;;24.53;32.13;99481.78;5014740;28;20401;-67
2024/02/21 10:33:37;;;;;;;10.10;7.03;;;;;;;23.97;33.05;99474.38;5030616;28;20038;-69
2024/02/21 10:36:09;;;;;;;8.52;7.00;;;;;;;23.48;33.97;99480.22;5047117;28;20037;-69
2024/02/21 10:38:38;;;;;;;11.15;7.28;;;;;;;22.65;35.21;99469.44;5030623;28;20108;-69
2024/02/21 10:41:07;;;;;;;9.63;7.15;;;;;;;22.07;36.40;99470.75;5030922;28;20024;-69
2024/02/21 10:43:41;;;;;;;9.52;7.18;;;;;;;21.69;37.22;99471.41;5050738;28;20053;-68
2024/02/21 10:46:10;;;;;;;12.73;7.50;;;;;;;21.28;37.92;99466.16;5035189;28;20110;-69
2024/02/21 10:48:43;;;;;;;10.98;7.80;;;;;;;20.82;38.86;99457.91;5034649;28;20394;-70
2024/02/21 10:51:19;;;;;;;12.38;7.88;;;;;;;20.47;39.52;99462.47;5034456;28;20067;-69
2024/02/21 10:54:16;;;;;;;9.48;7.35;;;;;;;20.13;40.16;99468.69;5034875;28;20033;-70
2024/02/21 10:56:41;;;;;;;10.30;7.28;;;;;;;19.98;40.45;99455.22;5034355;28;20060;-70
2024/02/21 10:59:07;;;;;;;11.57;7.40;;;;;;;20.43;39.63;99457.50;5034481;28;20063;-68
2024/02/21 11:01:35;;;;;;;11.18;7.80;;;;;;;20.60;39.09;99454.84;5034112;28;20037;-68
2024/02/21 11:04:05;;;;;;;10.65;7.75;;;;;;;21.10;38.33;99439.81;5034434;28;20044;-68
2024/02/21 11:06:30;;;;;;;10.43;7.10;;;;;;;21.62;37.60;99430.59;5035146;28;20059;-68
2024/02/21 11:09:06;;;;;;;10.38;7.53;;;;;;;22.09;36.44;99426.22;5034162;28;20484;-69
2024/02/21 11:11:35;;;;;;;10.10;6.97;;;;;;;22.54;35.76;99428.09;5050258;28;20053;-68
2024/02/21 11:14:20;;;;;;;11.30;7.65;;;;;;;22.90;34.73;99422.16;5034050;28;20025;-69
2024/02/21 11:16:45;;;;;;;10.52;7.18;;;;;;;23.25;34.33;99417.19;5034153;28;20040;-69
2024/02/21 11:19:21;;;;;;;8.05;6.35;;;;;;;23.52;33.77;99416.75;5017259;28;20474;-67
2024/02/21 11:21:47;;;;;;;10.82;6.78;;;;;;;23.45;33.10;99411.31;5033592;28;20041;-68
2024/02/21 11:24:13;;;;;;;9.23;6.40;;;;;;;23.32;32.90;99411.97;5033904;28;20041;-68